sensor_id;sensor_type;location;lat;lon;timestamp;temperature;humidity
35111;DHT22;21290;50.158;8.658;2023-09-19T00:00:21;16.60;99.90
35111;DHT22;21290;50.158;8.658;2023-09-19T00:02:58;16.60;99.90
35111;DHT22;21290;50.158;8.658;2023-09-19T00:05:34;16.60;99.90
35111;DHT22;21290;50.158;8.658;2023-09-19T00:08:02;16.60;99.90
35111;DHT22;21290;50.158;8.658;2023-09-19T00:10:32;16.60;99.90
35111;DHT22;21290;50.158;8.658;2023-09-19T00:13:02;16.70;99.90
35111;DHT22;21290;50.158;8.658;2023-09-19T00:15:41;16.70;99.90
35111;DHT22;21290;50.158;8.658;2023-09-19T00:18:08;16.70;99.90
35111;DHT22;21290;50.158;8.658;2023-09-19T00:20:36;16.70;99.90
35111;DHT22;21290;50.158;8.658;2023-09-19T00:23:04;16.60;99.90
35111;DHT22;21290;50.158;8.658;2023-09-19T00:25:36;16.60;99.90
35111;DHT22;21290;50.158;8.658;2023-09-19T00:28:04;16.70;99.90
35111;DHT22;21290;50.158;8.658;2023-09-19T00:30:34;16.70;99.90
35111;DHT22;21290;50.158;8.658;2023-09-19T00:33:01;16.70;99.90
35111;DHT22;21290;50.158;8.658;2023-09-19T00:35:32;16.70;99.90
35111;DHT22;21290;50.158;8.658;2023-09-19T00:37:59;16.70;99.90
35111;DHT22;21290;50.158;8.658;2023-09-19T00:40:26;16.80;99.90
35111;DHT22;21290;50.158;8.658;2023-09-19T00:42:57;16.80;99.90
35111;DHT22;21290;50.158;8.658;2023-09-19T00:45:26;16.90;99.90
35111;DHT22;21290;50.158;8.658;2023-09-19T00:47:54;16.80;99.90
35111;DHT22;21290;50.158;8.658;2023-09-19T00:50:24;16.90;99.90
35111;DHT22;21290;50.158;8.658;2023-09-19T00:52:54;16.90;99.90
35111;DHT22;21290;50.158;8.658;2023-09-19T00:55:25;16.80;99.90
35111;DHT22;21290;50.158;8.658;2023-09-19T00:57:52;16.80;99.90
35111;DHT22;21290;50.158;8.658;2023-09-19T01:00:19;16.70;99.90
35111;DHT22;21290;50.158;8.658;2023-09-19T01:02:47;16.80;99.90
35111;DHT22;21290;50.158;8.658;2023-09-19T01:05:15;16.80;99.90
35111;DHT22;21290;50.158;8.658;2023-09-19T01:07:42;16.80;99.90
35111;DHT22;21290;50.158;8.658;2023-09-19T01:10:14;16.80;99.90
35111;DHT22;21290;50.158;8.658;2023-09-19T01:15:37;16.80;99.90
35111;DHT22;21290;50.158;8.658;2023-09-19T01:18:21;16.70;99.90
35111;DHT22;21290;50.158;8.658;2023-09-19T01:21:00;16.70;99.90
35111;DHT22;21290;50.158;8.658;2023-09-19T01:29:44;16.80;99.90
35111;DHT22;21290;50.158;8.658;2023-09-19T01:32:13;16.70;99.90
35111;DHT22;21290;50.158;8.658;2023-09-19T01:34:53;16.70;99.90
35111;DHT22;21290;50.158;8.658;2023-09-19T01:37:21;16.70;99.90
35111;DHT22;21290;50.158;8.658;2023-09-19T01:39:57;16.60;99.90
35111;DHT22;21290;50.158;8.658;2023-09-19T01:42:35;16.70;99.90
35111;DHT22;21290;50.158;8.658;2023-09-19T01:45:09;16.70;99.90
35111;DHT22;21290;50.158;8.658;2023-09-19T01:47:52;16.70;99.90
35111;DHT22;21290;50.158;8.658;2023-09-19T01:50:32;16.80;99.90
35111;DHT22;21290;50.158;8.658;2023-09-19T01:53:10;16.70;99.90
35111;DHT22;21290;50.158;8.658;2023-09-19T01:55:43;16.80;99.90
35111;DHT22;21290;50.158;8.658;2023-09-19T01:58:29;16.80;99.90
35111;DHT22;21290;50.158;8.658;2023-09-19T02:00:58;16.70;99.90
35111;DHT22;21290;50.158;8.658;2023-09-19T02:03:26;16.60;99.90
35111;DHT22;21290;50.158;8.658;2023-09-19T02:05:55;16.60;99.90
35111;DHT22;21290;50.158;8.658;2023-09-19T02:08:23;16.60;99.90
35111;DHT22;21290;50.158;8.658;2023-09-19T02:10:52;16.60;99.90
35111;DHT22;21290;50.158;8.658;2023-09-19T02:13:21;16.60;99.90
35111;DHT22;21290;50.158;8.658;2023-09-19T02:15:48;16.50;99.90
35111;DHT22;21290;50.158;8.658;2023-09-19T02:18:15;16.50;99.90
35111;DHT22;21290;50.158;8.658;2023-09-19T02:20:42;16.50;99.90
35111;DHT22;21290;50.158;8.658;2023-09-19T02:23:10;16.50;99.90
35111;DHT22;21290;50.158;8.658;2023-09-19T02:25:37;16.50;99.90
35111;DHT22;21290;50.158;8.658;2023-09-19T02:28:07;16.40;99.90
35111;DHT22;21290;50.158;8.658;2023-09-19T02:30:35;16.40;99.90
35111;DHT22;21290;50.158;8.658;2023-09-19T02:33:03;16.40;99.90
35111;DHT22;21290;50.158;8.658;2023-09-19T02:35:30;16.40;99.90
35111;DHT22;21290;50.158;8.658;2023-09-19T02:38:02;16.30;99.90
35111;DHT22;21290;50.158;8.658;2023-09-19T02:40:33;16.30;99.90
35111;DHT22;21290;50.158;8.658;2023-09-19T02:43:03;16.20;99.90
35111;DHT22;21290;50.158;8.658;2023-09-19T02:45:30;16.20;99.90
35111;DHT22;21290;50.158;8.658;2023-09-19T02:47:58;16.10;99.90
35111;DHT22;21290;50.158;8.658;2023-09-19T02:50:25;16.10;99.90
35111;DHT22;21290;50.158;8.658;2023-09-19T02:52:52;16.10;99.90
35111;DHT22;21290;50.158;8.658;2023-09-19T02:55:19;16.10;99.90
35111;DHT22;21290;50.158;8.658;2023-09-19T02:57:50;16.10;99.90
35111;DHT22;21290;50.158;8.658;2023-09-19T03:00:18;16.20;99.90
35111;DHT22;21290;50.158;8.658;2023-09-19T03:02:53;16.20;99.90
35111;DHT22;21290;50.158;8.658;2023-09-19T03:05:21;16.20;99.90
35111;DHT22;21290;50.158;8.658;2023-09-19T03:07:48;16.20;99.90
35111;DHT22;21290;50.158;8.658;2023-09-19T03:10:18;16.30;99.90
35111;DHT22;21290;50.158;8.658;2023-09-19T03:12:46;16.30;99.90
35111;DHT22;21290;50.158;8.658;2023-09-19T03:15:14;16.30;99.90
35111;DHT22;21290;50.158;8.658;2023-09-19T03:17:45;16.30;99.90
35111;DHT22;21290;50.158;8.658;2023-09-19T03:20:13;16.20;99.90
35111;DHT22;21290;50.158;8.658;2023-09-19T03:22:44;16.20;99.90
35111;DHT22;21290;50.158;8.658;2023-09-19T03:25:11;16.20;99.90
35111;DHT22;21290;50.158;8.658;2023-09-19T03:27:39;16.10;99.90
35111;DHT22;21290;50.158;8.658;2023-09-19T03:30:06;16.00;99.90
35111;DHT22;21290;50.158;8.658;2023-09-19T03:32:35;16.00;99.90
35111;DHT22;21290;50.158;8.658;2023-09-19T03:35:03;16.00;99.90
35111;DHT22;21290;50.158;8.658;2023-09-19T03:37:31;15.90;99.90
35111;DHT22;21290;50.158;8.658;2023-09-19T03:39:59;15.90;99.90
35111;DHT22;21290;50.158;8.658;2023-09-19T03:42:31;15.90;99.90
35111;DHT22;21290;50.158;8.658;2023-09-19T03:44:58;15.80;99.90
35111;DHT22;21290;50.158;8.658;2023-09-19T03:47:27;15.80;99.90
35111;DHT22;21290;50.158;8.658;2023-09-19T03:49:54;15.80;99.90
35111;DHT22;21290;50.158;8.658;2023-09-19T03:52:20;15.70;99.90
35111;DHT22;21290;50.158;8.658;2023-09-19T03:54:47;15.70;99.90
35111;DHT22;21290;50.158;8.658;2023-09-19T03:57:14;15.80;99.90
35111;DHT22;21290;50.158;8.658;2023-09-19T03:59:43;15.70;99.90
35111;DHT22;21290;50.158;8.658;2023-09-19T04:02:10;15.70;99.90
35111;DHT22;21290;50.158;8.658;2023-09-19T04:04:49;15.70;99.90
35111;DHT22;21290;50.158;8.658;2023-09-19T04:07:16;15.80;99.90
35111;DHT22;21290;50.158;8.658;2023-09-19T04:09:43;15.80;99.90
35111;DHT22;21290;50.158;8.658;2023-09-19T04:12:10;15.80;99.90
35111;DHT22;21290;50.158;8.658;2023-09-19T04:14:37;16.00;99.90
35111;DHT22;21290;50.158;8.658;2023-09-19T04:17:05;16.00;99.90
35111;DHT22;21290;50.158;8.658;2023-09-19T04:19:34;16.00;99.90
35111;DHT22;21290;50.158;8.658;2023-09-19T04:22:02;16.00;99.90
35111;DHT22;21290;50.158;8.658;2023-09-19T04:24:30;16.00;99.90
35111;DHT22;21290;50.158;8.658;2023-09-19T04:26:59;16.10;99.90
35111;DHT22;21290;50.158;8.658;2023-09-19T04:29:26;16.10;99.90
35111;DHT22;21290;50.158;8.658;2023-09-19T04:31:56;16.00;99.90
35111;DHT22;21290;50.158;8.658;2023-09-19T04:34:24;16.10;99.90
35111;DHT22;21290;50.158;8.658;2023-09-19T04:36:51;16.10;99.90
35111;DHT22;21290;50.158;8.658;2023-09-19T04:39:18;16.10;99.90
35111;DHT22;21290;50.158;8.658;2023-09-19T04:41:44;16.20;99.90
35111;DHT22;21290;50.158;8.658;2023-09-19T04:44:12;16.20;99.90
35111;DHT22;21290;50.158;8.658;2023-09-19T04:46:39;16.10;99.90
35111;DHT22;21290;50.158;8.658;2023-09-19T04:49:06;16.00;99.90
35111;DHT22;21290;50.158;8.658;2023-09-19T04:51:33;16.00;99.90
35111;DHT22;21290;50.158;8.658;2023-09-19T04:54:03;15.90;99.90
35111;DHT22;21290;50.158;8.658;2023-09-19T04:56:30;15.90;99.90
35111;DHT22;21290;50.158;8.658;2023-09-19T04:58:57;15.80;99.90
35111;DHT22;21290;50.158;8.658;2023-09-19T05:01:25;15.80;99.90
35111;DHT22;21290;50.158;8.658;2023-09-19T05:03:52;15.70;99.90
35111;DHT22;21290;50.158;8.658;2023-09-19T05:06:22;15.70;99.90
35111;DHT22;21290;50.158;8.658;2023-09-19T05:08:49;15.70;99.90
35111;DHT22;21290;50.158;8.658;2023-09-19T05:11:21;15.70;99.90
35111;DHT22;21290;50.158;8.658;2023-09-19T05:13:49;15.60;99.90
35111;DHT22;21290;50.158;8.658;2023-09-19T05:16:20;15.60;99.90
35111;DHT22;21290;50.158;8.658;2023-09-19T05:18:47;15.60;99.90
35111;DHT22;21290;50.158;8.658;2023-09-19T05:21:14;15.70;99.90
35111;DHT22;21290;50.158;8.658;2023-09-19T05:23:41;15.70;99.90
35111;DHT22;21290;50.158;8.658;2023-09-19T05:26:08;15.60;99.90
35111;DHT22;21290;50.158;8.658;2023-09-19T05:28:37;15.70;99.90
35111;DHT22;21290;50.158;8.658;2023-09-19T05:31:04;15.60;99.90
35111;DHT22;21290;50.158;8.658;2023-09-19T05:33:32;15.60;99.90
35111;DHT22;21290;50.158;8.658;2023-09-19T05:35:59;15.70;99.90
35111;DHT22;21290;50.158;8.658;2023-09-19T05:38:26;15.70;99.90
35111;DHT22;21290;50.158;8.658;2023-09-19T05:40:54;15.70;99.90
35111;DHT22;21290;50.158;8.658;2023-09-19T05:43:21;15.70;99.90
35111;DHT22;21290;50.158;8.658;2023-09-19T05:45:48;15.80;99.90
35111;DHT22;21290;50.158;8.658;2023-09-19T05:48:19;15.80;99.90
35111;DHT22;21290;50.158;8.658;2023-09-19T05:50:48;15.80;99.90
35111;DHT22;21290;50.158;8.658;2023-09-19T05:53:18;15.80;99.90
35111;DHT22;21290;50.158;8.658;2023-09-19T05:55:45;15.90;99.90
35111;DHT22;21290;50.158;8.658;2023-09-19T05:58:12;16.00;99.90
35111;DHT22;21290;50.158;8.658;2023-09-19T06:00:40;16.00;99.90
35111;DHT22;21290;50.158;8.658;2023-09-19T06:03:10;15.90;99.90
35111;DHT22;21290;50.158;8.658;2023-09-19T06:05:38;15.90;99.90
35111;DHT22;21290;50.158;8.658;2023-09-19T06:08:06;16.00;99.90
35111;DHT22;21290;50.158;8.658;2023-09-19T06:10:35;16.00;99.90
35111;DHT22;21290;50.158;8.658;2023-09-19T06:13:14;16.00;99.90
35111;DHT22;21290;50.158;8.658;2023-09-19T06:15:41;16.20;99.90
35111;DHT22;21290;50.158;8.658;2023-09-19T06:18:11;16.30;99.90
35111;DHT22;21290;50.158;8.658;2023-09-19T06:20:43;16.40;99.90
35111;DHT22;21290;50.158;8.658;2023-09-19T06:23:12;16.40;99.90
35111;DHT22;21290;50.158;8.658;2023-09-19T06:26:00;16.40;99.90
35111;DHT22;21290;50.158;8.658;2023-09-19T06:28:27;16.60;99.90
35111;DHT22;21290;50.158;8.658;2023-09-19T06:30:55;16.60;99.90
35111;DHT22;21290;50.158;8.658;2023-09-19T06:33:22;16.70;99.90
35111;DHT22;21290;50.158;8.658;2023-09-19T06:35:49;16.80;99.90
35111;DHT22;21290;50.158;8.658;2023-09-19T06:38:15;16.80;99.90
35111;DHT22;21290;50.158;8.658;2023-09-19T06:40:44;16.90;99.90
35111;DHT22;21290;50.158;8.658;2023-09-19T06:43:11;16.90;99.90
35111;DHT22;21290;50.158;8.658;2023-09-19T06:45:38;17.00;99.90
35111;DHT22;21290;50.158;8.658;2023-09-19T06:48:05;17.10;99.90
35111;DHT22;21290;50.158;8.658;2023-09-19T06:50:40;17.20;99.90
35111;DHT22;21290;50.158;8.658;2023-09-19T06:53:08;17.30;99.90
35111;DHT22;21290;50.158;8.658;2023-09-19T06:55:36;17.20;99.90
35111;DHT22;21290;50.158;8.658;2023-09-19T06:58:03;17.30;99.90
35111;DHT22;21290;50.158;8.658;2023-09-19T07:00:32;17.20;99.90
35111;DHT22;21290;50.158;8.658;2023-09-19T07:03:03;17.30;99.90
35111;DHT22;21290;50.158;8.658;2023-09-19T07:05:32;17.30;99.90
35111;DHT22;21290;50.158;8.658;2023-09-19T07:11:56;17.60;99.90
35111;DHT22;21290;50.158;8.658;2023-09-19T07:14:23;17.90;99.90
35111;DHT22;21290;50.158;8.658;2023-09-19T07:16:49;17.80;99.90
35111;DHT22;21290;50.158;8.658;2023-09-19T07:19:17;17.90;99.90
35111;DHT22;21290;50.158;8.658;2023-09-19T07:21:44;18.00;99.90
35111;DHT22;21290;50.158;8.658;2023-09-19T07:24:29;18.00;99.90
35111;DHT22;21290;50.158;8.658;2023-09-19T07:38:35;17.90;99.90
35111;DHT22;21290;50.158;8.658;2023-09-19T07:41:02;18.00;99.90
35111;DHT22;21290;50.158;8.658;2023-09-19T07:43:36;18.10;99.90
35111;DHT22;21290;50.158;8.658;2023-09-19T07:46:06;18.20;99.90
35111;DHT22;21290;50.158;8.658;2023-09-19T07:48:36;18.30;99.90
35111;DHT22;21290;50.158;8.658;2023-09-19T07:51:08;18.40;99.90
35111;DHT22;21290;50.158;8.658;2023-09-19T07:53:35;18.50;99.90
35111;DHT22;21290;50.158;8.658;2023-09-19T07:56:04;18.50;99.90
35111;DHT22;21290;50.158;8.658;2023-09-19T07:58:32;18.60;99.90
35111;DHT22;21290;50.158;8.658;2023-09-19T08:01:07;18.70;99.90
35111;DHT22;21290;50.158;8.658;2023-09-19T08:03:37;18.80;99.90
35111;DHT22;21290;50.158;8.658;2023-09-19T08:10:25;19.10;99.90
35111;DHT22;21290;50.158;8.658;2023-09-19T08:12:54;19.30;99.90
35111;DHT22;21290;50.158;8.658;2023-09-19T08:15:24;19.50;99.90
35111;DHT22;21290;50.158;8.658;2023-09-19T08:17:51;19.70;99.90
35111;DHT22;21290;50.158;8.658;2023-09-19T08:20:19;19.80;99.90
35111;DHT22;21290;50.158;8.658;2023-09-19T08:26:41;20.40;99.90
35111;DHT22;21290;50.158;8.658;2023-09-19T08:37:06;19.90;99.90
35111;DHT22;21290;50.158;8.658;2023-09-19T08:39:33;20.10;99.90
35111;DHT22;21290;50.158;8.658;2023-09-19T08:42:03;20.00;99.90
35111;DHT22;21290;50.158;8.658;2023-09-19T08:44:36;20.20;99.90
35111;DHT22;21290;50.158;8.658;2023-09-19T08:50:39;21.70;99.90
35111;DHT22;21290;50.158;8.658;2023-09-19T09:08:02;25.60;95.20
35111;DHT22;21290;50.158;8.658;2023-09-19T09:10:32;25.80;93.70
35111;DHT22;21290;50.158;8.658;2023-09-19T09:16:47;26.20;91.60
35111;DHT22;21290;50.158;8.658;2023-09-19T09:19:15;26.30;91.00
35111;DHT22;21290;50.158;8.658;2023-09-19T09:21:51;26.40;90.80
35111;DHT22;21290;50.158;8.658;2023-09-19T09:24:37;25.90;91.80
35111;DHT22;21290;50.158;8.658;2023-09-19T09:27:23;25.60;91.30
35111;DHT22;21290;50.158;8.658;2023-09-19T09:29:52;24.80;91.60
35111;DHT22;21290;50.158;8.658;2023-09-19T09:32:29;24.40;92.70
35111;DHT22;21290;50.158;8.658;2023-09-19T09:35:15;24.00;93.40
35111;DHT22;21290;50.158;8.658;2023-09-19T09:37:48;23.70;93.20
35111;DHT22;21290;50.158;8.658;2023-09-19T09:40:46;23.60;93.50
35111;DHT22;21290;50.158;8.658;2023-09-19T09:47:05;23.10;94.40
35111;DHT22;21290;50.158;8.658;2023-09-19T09:54:37;23.20;93.80
35111;DHT22;21290;50.158;8.658;2023-09-19T09:57:14;23.40;93.90
35111;DHT22;21290;50.158;8.658;2023-09-19T10:00:03;23.70;93.50
35111;DHT22;21290;50.158;8.658;2023-09-19T10:06:47;24.60;92.60
35111;DHT22;21290;50.158;8.658;2023-09-19T10:09:18;25.50;90.70
35111;DHT22;21290;50.158;8.658;2023-09-19T10:23:10;27.90;85.00
35111;DHT22;21290;50.158;8.658;2023-09-19T10:25:41;28.80;83.00
35111;DHT22;21290;50.158;8.658;2023-09-19T10:28:14;28.60;78.90
35111;DHT22;21290;50.158;8.658;2023-09-19T10:33:13;28.50;79.40
35111;DHT22;21290;50.158;8.658;2023-09-19T10:35:43;28.30;78.30
35111;DHT22;21290;50.158;8.658;2023-09-19T10:38:12;28.00;77.80
35111;DHT22;21290;50.158;8.658;2023-09-19T10:40:39;27.90;78.50
35111;DHT22;21290;50.158;8.658;2023-09-19T10:43:18;28.20;78.10
35111;DHT22;21290;50.158;8.658;2023-09-19T10:45:47;28.60;76.00
35111;DHT22;21290;50.158;8.658;2023-09-19T10:48:17;28.10;75.10
35111;DHT22;21290;50.158;8.658;2023-09-19T10:53:18;27.20;75.70
35111;DHT22;21290;50.158;8.658;2023-09-19T10:55:55;26.90;76.90
35111;DHT22;21290;50.158;8.658;2023-09-19T10:58:28;26.80;76.20
35111;DHT22;21290;50.158;8.658;2023-09-19T11:01:01;26.20;78.10
35111;DHT22;21290;50.158;8.658;2023-09-19T11:03:39;25.80;77.40
35111;DHT22;21290;50.158;8.658;2023-09-19T11:06:14;26.40;76.30
35111;DHT22;21290;50.158;8.658;2023-09-19T11:08:57;27.10;76.40
35111;DHT22;21290;50.158;8.658;2023-09-19T11:11:46;27.80;74.40
35111;DHT22;21290;50.158;8.658;2023-09-19T11:20:21;28.50;73.60
35111;DHT22;21290;50.158;8.658;2023-09-19T11:30:33;29.30;68.90
35111;DHT22;21290;50.158;8.658;2023-09-19T11:33:23;29.00;69.00
35111;DHT22;21290;50.158;8.658;2023-09-19T11:44:54;27.40;69.20
35111;DHT22;21290;50.158;8.658;2023-09-19T11:47:22;26.00;71.60
35111;DHT22;21290;50.158;8.658;2023-09-19T11:49:51;25.10;73.80
35111;DHT22;21290;50.158;8.658;2023-09-19T11:52:22;24.50;75.10
35111;DHT22;21290;50.158;8.658;2023-09-19T11:55:12;24.00;76.60
35111;DHT22;21290;50.158;8.658;2023-09-19T11:57:46;23.20;79.20
35111;DHT22;21290;50.158;8.658;2023-09-19T12:00:20;22.90;80.40
35111;DHT22;21290;50.158;8.658;2023-09-19T12:03:08;22.80;81.80
35111;DHT22;21290;50.158;8.658;2023-09-19T12:05:36;22.90;82.20
35111;DHT22;21290;50.158;8.658;2023-09-19T12:08:26;23.10;81.80
35111;DHT22;21290;50.158;8.658;2023-09-19T12:10:53;23.20;80.50
35111;DHT22;21290;50.158;8.658;2023-09-19T12:13:22;23.00;80.80
35111;DHT22;21290;50.158;8.658;2023-09-19T12:15:49;22.90;80.00
35111;DHT22;21290;50.158;8.658;2023-09-19T12:18:31;22.80;82.20
35111;DHT22;21290;50.158;8.658;2023-09-19T12:25:07;23.10;80.60
35111;DHT22;21290;50.158;8.658;2023-09-19T12:27:44;23.20;79.20
35111;DHT22;21290;50.158;8.658;2023-09-19T12:30:14;23.20;79.30
35111;DHT22;21290;50.158;8.658;2023-09-19T12:32:53;23.00;81.20
35111;DHT22;21290;50.158;8.658;2023-09-19T12:35:33;22.90;80.50
35111;DHT22;21290;50.158;8.658;2023-09-19T12:38:02;22.80;79.90
35111;DHT22;21290;50.158;8.658;2023-09-19T12:40:31;22.80;81.00
35111;DHT22;21290;50.158;8.658;2023-09-19T12:43:01;23.00;79.40
35111;DHT22;21290;50.158;8.658;2023-09-19T12:45:32;22.80;79.50
35111;DHT22;21290;50.158;8.658;2023-09-19T12:48:24;22.70;80.20
35111;DHT22;21290;50.158;8.658;2023-09-19T12:51:09;22.80;82.60
35111;DHT22;21290;50.158;8.658;2023-09-19T12:53:40;22.70;79.90
35111;DHT22;21290;50.158;8.658;2023-09-19T12:56:10;22.60;79.20
35111;DHT22;21290;50.158;8.658;2023-09-19T12:58:58;22.50;80.90
35111;DHT22;21290;50.158;8.658;2023-09-19T13:01:30;22.60;82.50
35111;DHT22;21290;50.158;8.658;2023-09-19T13:04:19;22.60;81.50
35111;DHT22;21290;50.158;8.658;2023-09-19T13:06:51;22.70;81.80
35111;DHT22;21290;50.158;8.658;2023-09-19T13:09:22;22.70;81.50
35111;DHT22;21290;50.158;8.658;2023-09-19T13:12:01;22.80;81.00
35111;DHT22;21290;50.158;8.658;2023-09-19T13:14:30;22.80;80.60
35111;DHT22;21290;50.158;8.658;2023-09-19T13:17:07;22.90;80.00
35111;DHT22;21290;50.158;8.658;2023-09-19T13:19:47;22.90;79.30
35111;DHT22;21290;50.158;8.658;2023-09-19T13:22:37;23.00;79.60
35111;DHT22;21290;50.158;8.658;2023-09-19T13:25:12;22.90;78.40
35111;DHT22;21290;50.158;8.658;2023-09-19T13:27:43;22.80;78.80
35111;DHT22;21290;50.158;8.658;2023-09-19T13:30:12;22.80;78.40
35111;DHT22;21290;50.158;8.658;2023-09-19T13:32:39;22.70;80.00
35111;DHT22;21290;50.158;8.658;2023-09-19T13:35:07;22.80;79.60
35111;DHT22;21290;50.158;8.658;2023-09-19T13:37:39;22.90;80.50
35111;DHT22;21290;50.158;8.658;2023-09-19T13:40:10;23.10;79.90
35111;DHT22;21290;50.158;8.658;2023-09-19T13:42:38;23.10;78.90
35111;DHT22;21290;50.158;8.658;2023-09-19T13:45:05;22.90;77.60
35111;DHT22;21290;50.158;8.658;2023-09-19T13:47:33;22.60;77.80
35111;DHT22;21290;50.158;8.658;2023-09-19T13:50:02;22.50;78.90
35111;DHT22;21290;50.158;8.658;2023-09-19T14:07:44;22.80;81.00
35111;DHT22;21290;50.158;8.658;2023-09-19T14:18:00;22.90;79.60
35111;DHT22;21290;50.158;8.658;2023-09-19T14:20:42;22.60;79.50
35111;DHT22;21290;50.158;8.658;2023-09-19T14:23:37;22.50;80.10
35111;DHT22;21290;50.158;8.658;2023-09-19T14:33:55;22.10;80.10
35111;DHT22;21290;50.158;8.658;2023-09-19T14:36:27;22.00;81.10
35111;DHT22;21290;50.158;8.658;2023-09-19T14:38:55;21.80;80.40
35111;DHT22;21290;50.158;8.658;2023-09-19T14:41:23;21.60;81.10
35111;DHT22;21290;50.158;8.658;2023-09-19T14:43:52;21.50;81.00
35111;DHT22;21290;50.158;8.658;2023-09-19T14:46:19;21.30;80.50
35111;DHT22;21290;50.158;8.658;2023-09-19T14:48:46;21.30;81.80
35111;DHT22;21290;50.158;8.658;2023-09-19T14:51:15;21.30;82.30
35111;DHT22;21290;50.158;8.658;2023-09-19T14:53:43;21.50;82.40
35111;DHT22;21290;50.158;8.658;2023-09-19T14:56:10;21.80;82.90
35111;DHT22;21290;50.158;8.658;2023-09-19T14:58:37;22.00;83.30
35111;DHT22;21290;50.158;8.658;2023-09-19T15:01:11;22.10;82.10
35111;DHT22;21290;50.158;8.658;2023-09-19T15:03:39;22.20;81.30
35111;DHT22;21290;50.158;8.658;2023-09-19T15:06:08;22.10;81.70
35111;DHT22;21290;50.158;8.658;2023-09-19T15:08:37;22.10;82.20
35111;DHT22;21290;50.158;8.658;2023-09-19T15:11:07;22.20;81.20
35111;DHT22;21290;50.158;8.658;2023-09-19T15:13:35;22.10;81.30
35111;DHT22;21290;50.158;8.658;2023-09-19T15:16:04;22.00;82.10
35111;DHT22;21290;50.158;8.658;2023-09-19T15:18:31;22.00;81.60
35111;DHT22;21290;50.158;8.658;2023-09-19T15:21:00;22.00;82.10
35111;DHT22;21290;50.158;8.658;2023-09-19T15:23:27;22.00;81.30
35111;DHT22;21290;50.158;8.658;2023-09-19T15:25:58;21.90;81.60
35111;DHT22;21290;50.158;8.658;2023-09-19T15:28:25;21.80;81.60
35111;DHT22;21290;50.158;8.658;2023-09-19T15:31:01;21.60;82.30
35111;DHT22;21290;50.158;8.658;2023-09-19T15:33:30;21.50;82.70
35111;DHT22;21290;50.158;8.658;2023-09-19T15:36:11;21.60;83.30
35111;DHT22;21290;50.158;8.658;2023-09-19T15:39:08;21.60;83.80
35111;DHT22;21290;50.158;8.658;2023-09-19T15:41:39;21.60;84.70
35111;DHT22;21290;50.158;8.658;2023-09-19T15:44:16;21.60;84.80
35111;DHT22;21290;50.158;8.658;2023-09-19T15:46:43;21.60;85.00
35111;DHT22;21290;50.158;8.658;2023-09-19T15:49:11;21.50;85.10
35111;DHT22;21290;50.158;8.658;2023-09-19T15:51:40;21.50;85.40
35111;DHT22;21290;50.158;8.658;2023-09-19T15:54:09;21.40;87.00
35111;DHT22;21290;50.158;8.658;2023-09-19T15:56:36;21.50;85.60
35111;DHT22;21290;50.158;8.658;2023-09-19T15:59:04;21.50;86.20
35111;DHT22;21290;50.158;8.658;2023-09-19T16:01:31;21.50;86.60
35111;DHT22;21290;50.158;8.658;2023-09-19T16:03:58;21.50;86.70
35111;DHT22;21290;50.158;8.658;2023-09-19T16:06:30;21.50;88.70
35111;DHT22;21290;50.158;8.658;2023-09-19T16:08:58;21.50;87.80
35111;DHT22;21290;50.158;8.658;2023-09-19T16:11:27;21.50;87.40
35111;DHT22;21290;50.158;8.658;2023-09-19T16:13:55;21.60;88.50
35111;DHT22;21290;50.158;8.658;2023-09-19T16:16:22;21.60;87.00
35111;DHT22;21290;50.158;8.658;2023-09-19T16:18:52;21.50;87.50
35111;DHT22;21290;50.158;8.658;2023-09-19T16:21:23;21.50;87.20
35111;DHT22;21290;50.158;8.658;2023-09-19T16:23:50;21.40;87.10
35111;DHT22;21290;50.158;8.658;2023-09-19T16:26:18;21.40;88.60
35111;DHT22;21290;50.158;8.658;2023-09-19T16:28:49;21.30;89.10
35111;DHT22;21290;50.158;8.658;2023-09-19T16:31:16;21.30;88.80
35111;DHT22;21290;50.158;8.658;2023-09-19T16:33:46;21.30;89.10
35111;DHT22;21290;50.158;8.658;2023-09-19T16:36:13;21.20;89.50
35111;DHT22;21290;50.158;8.658;2023-09-19T16:38:42;21.10;90.00
35111;DHT22;21290;50.158;8.658;2023-09-19T16:41:11;21.00;90.40
35111;DHT22;21290;50.158;8.658;2023-09-19T16:43:40;20.90;90.40
35111;DHT22;21290;50.158;8.658;2023-09-19T16:46:09;20.90;90.80
35111;DHT22;21290;50.158;8.658;2023-09-19T16:48:39;20.80;90.80
35111;DHT22;21290;50.158;8.658;2023-09-19T16:51:26;20.80;91.10
35111;DHT22;21290;50.158;8.658;2023-09-19T16:53:55;20.70;91.20
35111;DHT22;21290;50.158;8.658;2023-09-19T16:56:22;20.70;91.30
35111;DHT22;21290;50.158;8.658;2023-09-19T16:58:49;20.70;91.40
35111;DHT22;21290;50.158;8.658;2023-09-19T17:01:19;20.70;91.60
35111;DHT22;21290;50.158;8.658;2023-09-19T17:03:48;20.70;91.80
35111;DHT22;21290;50.158;8.658;2023-09-19T17:06:17;20.80;91.80
35111;DHT22;21290;50.158;8.658;2023-09-19T17:08:46;20.80;91.90
35111;DHT22;21290;50.158;8.658;2023-09-19T17:11:15;20.80;91.90
35111;DHT22;21290;50.158;8.658;2023-09-19T17:13:47;20.80;92.00
35111;DHT22;21290;50.158;8.658;2023-09-19T17:16:17;20.80;92.20
35111;DHT22;21290;50.158;8.658;2023-09-19T17:18:55;20.80;92.50
35111;DHT22;21290;50.158;8.658;2023-09-19T17:21:24;20.70;92.60
35111;DHT22;21290;50.158;8.658;2023-09-19T17:23:52;20.70;92.70
35111;DHT22;21290;50.158;8.658;2023-09-19T17:26:21;20.70;92.80
35111;DHT22;21290;50.158;8.658;2023-09-19T17:28:48;20.60;93.10
35111;DHT22;21290;50.158;8.658;2023-09-19T17:31:19;20.60;93.20
35111;DHT22;21290;50.158;8.658;2023-09-19T17:33:49;20.60;93.30
35111;DHT22;21290;50.158;8.658;2023-09-19T17:36:22;20.50;93.40
35111;DHT22;21290;50.158;8.658;2023-09-19T17:38:54;20.50;93.70
35111;DHT22;21290;50.158;8.658;2023-09-19T17:41:22;20.40;94.00
35111;DHT22;21290;50.158;8.658;2023-09-19T17:43:57;20.40;94.20
35111;DHT22;21290;50.158;8.658;2023-09-19T17:46:25;20.30;94.50
35111;DHT22;21290;50.158;8.658;2023-09-19T17:48:55;20.20;94.80
35111;DHT22;21290;50.158;8.658;2023-09-19T17:51:23;20.20;95.00
35111;DHT22;21290;50.158;8.658;2023-09-19T17:53:50;20.10;95.30
35111;DHT22;21290;50.158;8.658;2023-09-19T17:56:17;20.10;95.50
35111;DHT22;21290;50.158;8.658;2023-09-19T17:58:47;20.00;95.60
35111;DHT22;21290;50.158;8.658;2023-09-19T18:01:24;20.00;96.00
35111;DHT22;21290;50.158;8.658;2023-09-19T18:03:54;20.00;96.10
35111;DHT22;21290;50.158;8.658;2023-09-19T18:06:25;20.00;96.50
35111;DHT22;21290;50.158;8.658;2023-09-19T18:08:52;19.90;96.70
35111;DHT22;21290;50.158;8.658;2023-09-19T18:11:21;19.90;97.00
35111;DHT22;21290;50.158;8.658;2023-09-19T18:13:51;19.80;97.10
35111;DHT22;21290;50.158;8.658;2023-09-19T18:16:21;19.80;97.40
35111;DHT22;21290;50.158;8.658;2023-09-19T18:18:52;19.80;97.70
35111;DHT22;21290;50.158;8.658;2023-09-19T18:21:20;19.80;98.10